Time;durP1;ratioP1;P1;durP2;ratioP2;P2;SDS_P1;SDS_P2;PMS_P1;PMS_P2;Temp;Humidity;BMP_temperature;BMP_pressure;BME280_temperature;BME280_humidity;BME280_pressure;Samples;Min_cycle;Max_cycle;Signal;HPM_P1;HPM_P2
2021/07/18 00:00:35;;;;;;;9.75;7.57;;;21.30;99.90;;;21.81;69.34;102486.53;4937700;29;20048;-71
2021/07/18 00:03:04;;;;;;;10.68;7.43;;;21.40;99.90;;;21.86;69.49;102481.03;4920598;29;20055;-69
2021/07/18 00:05:33;;;;;;;10.13;6.80;;;21.40;99.90;;;21.86;69.50;102479.22;4937629;29;20056;-68
2021/07/18 00:08:07;;;;;;;11.15;7.47;;;21.40;99.90;;;21.86;69.33;102478.31;4937760;29;20079;-69
2021/07/18 00:10:36;;;;;;;9.88;7.43;;;21.40;99.90;;;21.82;69.33;102472.13;4918712;29;20439;-69
2021/07/18 00:13:04;;;;;;;8.95;6.97;;;21.50;99.90;;;21.79;69.63;102474.00;4918593;29;20052;-74
2021/07/18 00:15:35;;;;;;;9.98;7.60;;;21.40;99.90;;;21.79;69.52;102477.56;4918680;29;20071;-68
2021/07/18 00:18:05;;;;;;;11.75;8.45;;;21.40;99.90;;;21.83;69.65;102473.91;4918230;29;20055;-72
2021/07/18 00:20:37;;;;;;;10.40;8.30;;;21.40;99.90;;;21.81;69.87;102466.78;4918196;29;20502;-68
2021/07/18 00:23:08;;;;;;;12.02;8.77;;;21.40;99.90;;;21.76;70.03;102463.28;4901444;29;20052;-67
2021/07/18 00:25:36;;;;;;;9.13;7.60;;;21.40;99.90;;;21.63;70.46;102464.50;4918473;29;20123;-68
2021/07/18 00:28:05;;;;;;;12.05;7.60;;;21.20;99.90;;;21.55;70.92;102462.00;4918078;29;20048;-70
2021/07/18 00:30:33;;;;;;;10.80;7.88;;;21.10;99.90;;;21.49;71.06;102459.44;4918073;29;20100;-72
2021/07/18 00:33:02;;;;;;;10.07;8.18;;;20.90;99.90;;;21.37;71.04;102457.94;4918050;29;20127;-74
2021/07/18 00:35:34;;;;;;;10.25;7.93;;;20.90;99.90;;;21.37;70.93;102462.44;4918107;29;20391;-68
2021/07/18 00:38:04;;;;;;;10.05;7.93;;;20.80;99.90;;;21.41;70.93;102458.75;4917935;29;20044;-70
2021/07/18 00:40:34;;;;;;;10.75;8.30;;;20.90;99.90;;;21.49;71.06;102456.75;4918148;29;20384;-69
2021/07/18 00:43:03;;;;;;;12.33;9.20;;;21.00;99.90;;;20.92;71.09;102366.59;4917696;29;20044;-70
2021/07/18 00:45:32;;;;;;;12.20;9.30;;;21.00;99.90;;;21.46;71.34;102459.53;4918056;29;20119;-68
2021/07/18 00:48:01;;;;;;;9.57;8.52;;;21.00;99.90;;;21.28;71.74;102463.56;4917924;29;20056;-67
2021/07/18 00:50:29;;;;;;;11.80;8.23;;;20.90;99.90;;;21.15;72.41;102455.78;4917994;29;20048;-63
2021/07/18 00:52:58;;;;;;;10.13;8.40;;;20.70;99.90;;;21.10;72.87;102460.41;4900642;29;20051;-62
2021/07/18 00:55:26;;;;;;;10.88;8.43;;;20.60;99.90;;;21.10;73.24;102460.41;4900857;29;20080;-64
2021/07/18 00:57:56;;;;;;;9.38;7.63;;;20.60;99.90;;;21.01;73.63;102448.03;4917611;29;20047;-65
2021/07/18 01:00:25;;;;;;;11.35;8.23;;;20.50;99.90;;;20.98;73.71;102448.03;4900541;29;20111;-63
2021/07/18 01:02:55;;;;;;;10.88;8.63;;;20.40;99.90;;;20.95;73.86;102448.13;4917558;29;20040;-65
2021/07/18 01:05:24;;;;;;;10.60;8.00;;;20.40;99.90;;;20.84;74.18;102443.91;4917830;29;20044;-64
2021/07/18 01:07:53;;;;;;;11.10;7.95;;;20.40;99.90;;;21.03;74.09;102458.75;4900855;29;20107;-65
2021/07/18 01:10:21;;;;;;;11.15;8.20;;;20.50;99.90;;;21.03;74.40;102453.38;4918000;29;20064;-64
2021/07/18 01:12:50;;;;;;;11.45;8.25;;;20.50;99.90;;;20.95;74.73;102466.06;4936306;29;20137;-65
2021/07/18 01:15:39;;;;;;;11.02;8.52;;;20.40;99.90;;;20.92;74.69;102444.63;4936323;29;20086;-65
2021/07/18 01:18:08;;;;;;;11.45;8.60;;;20.40;99.90;;;20.81;74.66;102433.22;4936228;29;20406;-64
2021/07/18 01:20:38;;;;;;;11.00;8.57;;;20.40;99.90;;;20.82;74.78;102446.63;4936414;29;20074;-65
2021/07/18 01:23:09;;;;;;;12.07;8.48;;;20.30;99.90;;;20.80;74.74;102448.47;4936171;29;20481;-65
2021/07/18 01:25:38;;;;;;;10.27;8.10;;;20.30;99.90;;;20.79;74.40;102443.97;4936395;29;20055;-65
2021/07/18 01:28:08;;;;;;;10.02;8.40;;;20.20;99.90;;;20.79;74.83;102445.81;4919244;29;20052;-65
2021/07/18 01:30:40;;;;;;;10.15;8.00;;;20.20;99.90;;;20.80;74.88;102442.19;4936340;29;20045;-65
2021/07/18 01:33:09;;;;;;;8.55;7.15;;;20.20;99.90;;;20.73;74.19;102440.56;4936153;29;20056;-65
2021/07/18 01:35:37;;;;;;;4.40;3.97;;;20.20;99.90;;;20.51;73.96;102441.00;4936122;29;20040;-66
2021/07/18 01:38:11;;;;;;;5.25;4.20;;;20.00;99.90;;;20.52;73.97;102432.00;4935974;29;20079;-64
2021/07/18 01:40:42;;;;;;;4.60;4.20;;;20.00;99.90;;;20.48;74.21;102430.28;4919410;29;20115;-65
2021/07/18 01:43:11;;;;;;;5.00;4.60;;;19.90;99.90;;;20.48;74.27;102427.59;4936142;29;20052;-65
2021/07/18 01:45:39;;;;;;;6.72;5.72;;;19.90;99.90;;;20.48;74.65;102422.22;4919358;29;20418;-65
2021/07/18 01:48:08;;;;;;;6.80;6.13;;;19.90;99.90;;;20.44;74.86;102419.66;4936224;29;20051;-65
2021/07/18 01:50:37;;;;;;;6.53;5.90;;;19.90;99.90;;;20.23;74.92;102396.75;4936082;29;20116;-65
2021/07/18 01:53:09;;;;;;;9.23;7.45;;;19.90;99.90;;;20.40;74.83;102426.88;4919010;29;20047;-66
2021/07/18 01:55:38;;;;;;;9.27;6.70;;;19.80;99.90;;;20.23;75.02;102418.25;4936159;29;20056;-66
2021/07/18 01:58:08;;;;;;;9.93;7.00;;;19.90;99.90;;;20.42;75.21;102427.72;4936035;29;20125;-64
2021/07/18 02:00:36;;;;;;;12.00;7.32;;;19.90;99.90;;;20.43;75.14;102426.81;4936431;29;20489;-65
2021/07/18 02:03:05;;;;;;;7.95;6.25;;;19.90;99.90;;;20.43;75.08;102420.56;4936041;29;20126;-65
2021/07/18 02:05:33;;;;;;;5.30;4.80;;;19.90;99.90;;;20.41;74.80;102425.97;4919153;29;20079;-64
2021/07/18 02:08:02;;;;;;;6.72;4.65;;;19.90;99.90;;;20.32;74.98;102420.78;4936180;29;20055;-65
2021/07/18 02:10:32;;;;;;;4.20;3.80;;;19.80;99.90;;;20.28;74.76;102427.13;4916837;29;20510;-64
2021/07/18 02:13:00;;;;;;;4.22;3.42;;;19.80;99.90;;;20.26;74.33;102431.66;4918532;29;20043;-65
2021/07/18 02:15:29;;;;;;;3.50;3.20;;;19.70;99.90;;;20.22;74.22;102431.72;4920752;29;20052;-65
2021/07/18 02:17:57;;;;;;;4.03;3.63;;;19.70;99.90;;;20.15;74.61;102414.78;4921000;29;20078;-64
2021/07/18 02:20:25;;;;;;;5.13;4.72;;;19.70;99.90;;;20.11;75.15;102423.81;4920616;29;20111;-64
2021/07/18 02:22:55;;;;;;;6.75;5.53;;;19.60;99.90;;;19.97;75.05;102407.09;4920958;29;20043;-64
2021/07/18 02:25:25;;;;;;;11.07;8.17;;;19.50;99.90;;;20.09;75.50;102427.47;4920596;29;20048;-64
2021/07/18 02:27:56;;;;;;;9.25;7.95;;;19.50;99.90;;;20.07;76.13;102418.56;4920938;29;20076;-65
2021/07/18 02:30:28;;;;;;;10.07;8.15;;;19.50;99.90;;;20.08;76.56;102429.25;4903829;29;20055;-64
2021/07/18 02:32:57;;;;;;;9.80;8.35;;;19.50;99.90;;;20.13;76.46;102442.63;4920701;29;20047;-65
2021/07/18 02:35:26;;;;;;;11.50;8.70;;;19.60;99.90;;;20.14;76.71;102423.78;4920754;29;20052;-64
2021/07/18 02:37:55;;;;;;;9.65;8.57;;;19.60;99.90;;;20.16;77.01;102424.63;4920716;29;20079;-64
2021/07/18 02:40:25;;;;;;;10.15;8.48;;;19.60;99.90;;;20.17;77.34;102426.41;4920574;29;20052;-64
2021/07/18 02:42:55;;;;;;;9.95;7.32;;;19.60;99.90;;;19.93;76.75;102418.81;4920782;29;20052;-65
2021/07/18 02:45:25;;;;;;;;;;;19.50;99.90;;;19.94;75.23;102425.94;4920952;29;20103;-65
2021/07/18 02:47:54;;;;;;;4.38;4.07;;;19.50;99.90;;;19.84;74.63;102410.03;4920556;29;19923;-65
2021/07/18 02:50:25;;;;;;;4.30;3.90;;;19.40;99.90;;;19.92;74.41;102418.84;4920217;29;20107;-65
2021/07/18 02:52:54;;;;;;;5.13;4.72;;;19.40;99.90;;;19.96;74.43;102410.69;4920515;29;20048;-65
2021/07/18 02:55:23;;;;;;;4.80;4.35;;;19.40;99.90;;;19.97;75.13;102412.47;4919926;29;20044;-64
2021/07/18 02:57:52;;;;;;;5.03;4.40;;;19.40;99.90;;;19.98;75.46;102416.00;4902994;29;20048;-64
2021/07/18 03:00:26;;;;;;;4.72;3.90;;;19.40;99.90;;;19.98;75.67;102408.84;4920023;29;20453;-65
2021/07/18 03:02:55;;;;;;;5.45;4.88;;;19.40;99.90;;;19.98;75.96;102419.59;4920234;29;20048;-64
2021/07/18 03:05:24;;;;;;;9.90;5.40;;;19.40;99.90;;;19.99;76.22;102410.63;4919813;29;20406;-65
2021/07/18 03:07:52;;;;;;;6.72;5.72;;;19.40;99.90;;;20.00;76.30;102403.44;4919820;29;20075;-65
2021/07/18 03:10:21;;;;;;;6.80;5.50;;;19.50;99.90;;;19.85;76.48;102384.94;4937538;29;20059;-65
2021/07/18 03:12:50;;;;;;;8.38;6.55;;;19.40;99.90;;;19.98;76.54;102406.16;4938411;29;20409;-65
2021/07/18 03:15:20;;;;;;;5.82;5.28;;;19.50;99.90;;;19.85;75.90;102410.00;4921327;29;20102;-65
2021/07/18 03:17:49;;;;;;;6.32;5.60;;;19.30;99.90;;;19.79;76.46;102412.78;4938731;29;20052;-65
2021/07/18 03:20:19;;;;;;;5.13;3.95;;;19.20;99.90;;;19.63;76.65;102397.84;4921377;29;20520;-65
2021/07/18 03:22:49;;;;;;;6.43;3.50;;;19.20;99.90;;;18.99;76.49;102292.47;4938522;29;20043;-65
2021/07/18 03:25:19;;;;;;;3.88;3.55;;;19.10;99.90;;;19.64;75.99;102405.91;4938047;29;20044;-65
2021/07/18 03:27:48;;;;;;;5.78;5.28;;;19.20;99.90;;;19.71;76.03;102404.88;4938477;29;20078;-65
2021/07/18 03:30:20;;;;;;;7.22;5.40;;;19.20;99.90;;;19.67;76.12;102386.13;4938404;29;20051;-65
2021/07/18 03:32:50;;;;;;;7.90;4.95;;;19.20;99.90;;;19.60;76.12;102374.63;4938131;29;20493;-65
2021/07/18 03:35:24;;;;;;;4.70;4.38;;;19.20;99.90;;;19.75;75.88;102392.25;4938318;29;20073;-65
2021/07/18 03:37:53;;;;;;;4.70;4.30;;;19.20;99.90;;;19.67;75.80;102391.50;4921177;29;20108;-65
2021/07/18 03:40:21;;;;;;;4.20;3.90;;;19.10;99.90;;;19.60;76.08;102387.16;4938475;29;20119;-64
2021/07/18 03:42:49;;;;;;;3.95;3.65;;;19.10;99.90;;;19.52;75.94;102397.16;4938118;29;20052;-65
2021/07/18 03:45:18;;;;;;;4.25;3.72;;;19.00;99.90;;;18.77;76.17;102300.88;4938014;29;20052;-64
2021/07/18 03:47:52;;;;;;;3.42;3.10;;;18.90;99.90;;;19.35;76.41;102391.19;4938073;29;20107;-65
2021/07/18 03:50:22;;;;;;;3.67;3.38;;;18.90;99.90;;;19.34;75.95;102384.91;4938052;29;20051;-65
2021/07/18 03:52:51;;;;;;;5.38;3.13;;;18.80;99.90;;;19.26;75.69;102391.31;4920944;29;20063;-64
2021/07/18 03:55:20;;;;;;;3.92;3.22;;;18.70;99.90;;;19.29;75.61;102388.56;4937996;29;20093;-64
2021/07/18 03:57:48;;;;;;;3.95;3.55;;;18.80;99.90;;;19.29;75.60;102396.59;4937909;29;20076;-65
2021/07/18 04:00:17;;;;;;;5.00;4.55;;;18.80;99.90;;;19.19;75.89;102393.19;4937543;29;20506;-65
2021/07/18 04:02:46;;;;;;;4.40;4.05;;;18.70;99.90;;;19.19;76.16;102390.50;4937619;29;20468;-65
2021/07/18 04:05:16;;;;;;;4.00;3.70;;;18.70;99.90;;;19.13;76.01;102400.44;4937680;29;20044;-65
2021/07/18 04:07:44;;;;;;;4.05;3.75;;;18.60;99.90;;;18.95;76.57;102379.25;4937458;29;20051;-65
2021/07/18 04:10:16;;;;;;;4.53;4.13;;;18.60;99.90;;;19.14;77.25;102394.16;4937267;29;20067;-65
2021/07/18 04:12:44;;;;;;;5.25;4.70;;;18.60;99.90;;;19.20;77.38;102386.03;4937712;29;20062;-64
2021/07/18 04:15:16;;;;;;;5.55;4.85;;;18.70;99.90;;;19.27;77.88;102398.44;4920549;29;20060;-65
2021/07/18 04:17:45;;;;;;;6.53;4.65;;;18.70;99.90;;;19.20;78.11;102404.81;4920475;29;20048;-65
2021/07/18 04:20:16;;;;;;;5.05;4.55;;;18.70;99.90;;;19.12;78.27;102396.00;4937276;29;20561;-65
2021/07/18 04:22:44;;;;;;;4.78;4.25;;;18.70;99.90;;;19.22;78.35;102403.84;4937200;29;20048;-65
2021/07/18 04:25:13;;;;;;;4.40;4.00;;;18.70;99.90;;;19.30;78.53;102401.94;4937331;29;20036;-65
2021/07/18 04:27:42;;;;;;;3.83;3.55;;;18.80;99.90;;;19.36;78.66;102401.88;4937145;29;20051;-65
2021/07/18 04:30:13;;;;;;;3.97;3.67;;;18.80;99.90;;;19.40;78.07;102402.72;4937379;29;20047;-65
2021/07/18 04:32:41;;;;;;;3.63;3.22;;;18.90;99.90;;;19.34;77.54;102395.66;4937188;29;20453;-65
2021/07/18 04:35:15;;;;;;;5.70;3.70;;;18.90;99.90;;;19.38;77.68;102396.47;4936815;29;20044;-65
2021/07/18 04:37:44;;;;;;;3.75;3.45;;;18.90;99.90;;;19.52;77.93;102399.84;4937147;29;20044;-65
2021/07/18 04:40:13;;;;;;;4.20;3.90;;;18.90;99.90;;;19.65;77.81;102401.38;4937154;29;20086;-65
2021/07/18 04:42:41;;;;;;;4.65;4.25;;;19.10;99.90;;;19.76;77.54;102396.75;4937044;29;20094;-65
2021/07/18 04:45:11;;;;;;;4.95;4.45;;;19.20;99.90;;;19.87;77.31;102397.44;4937114;29;20079;-65
2021/07/18 04:47:51;;;;;;;6.82;5.70;;;19.30;99.90;;;19.97;77.14;102403.50;4937018;29;20453;-65
2021/07/18 04:50:22;;;;;;;6.70;6.03;;;19.50;99.90;;;19.95;77.26;102394.59;4937069;29;20176;-65
2021/07/18 04:52:51;;;;;;;6.22;5.72;;;19.50;99.90;;;20.07;77.54;102407.81;4937064;29;20075;-66
2021/07/18 04:55:20;;;;;;;6.18;5.57;;;19.50;99.90;;;20.17;77.51;102410.28;4936880;29;20135;-65
2021/07/18 04:57:49;;;;;;;7.47;6.65;;;19.60;99.90;;;19.68;77.40;102304.69;4936556;29;20052;-65
2021/07/18 05:00:19;;;;;;;9.00;6.95;;;19.80;99.90;;;20.42;77.35;102414.28;4936676;29;20051;-65
2021/07/18 05:02:48;;;;;;;6.15;5.63;;;19.90;99.90;;;19.90;77.54;102311.41;4919601;29;20062;-65
2021/07/18 05:05:20;;;;;;;6.25;5.05;;;20.00;99.90;;;20.44;78.09;102414.28;4936672;29;20043;-65
2021/07/18 05:07:50;;;;;;;5.50;5.00;;;20.00;99.90;;;20.41;77.96;102407.16;4936700;29;20047;-65
2021/07/18 05:10:21;;;;;;;7.63;5.85;;;20.00;99.90;;;20.63;77.16;102413.84;4936729;29;20064;-65
2021/07/18 05:12:52;;;;;;;7.53;5.90;;;20.20;99.90;;;20.54;76.93;102392.53;4936568;29;20043;-65
2021/07/18 05:15:22;;;;;;;6.85;6.07;;;20.20;99.90;;;20.79;76.90;102408.16;4919511;29;20060;-65
2021/07/18 05:17:51;;;;;;;8.07;7.32;;;20.30;99.90;;;20.84;76.85;102412.50;4936490;29;20395;-66
2021/07/18 05:20:22;;;;;;;8.52;7.63;;;20.40;99.90;;;20.92;76.69;102415.03;4919402;29;20056;-65
2021/07/18 05:22:51;;;;;;;7.78;6.82;;;20.50;99.90;;;21.02;77.22;102412.09;4936201;29;20397;-65
2021/07/18 05:25:20;;;;;;;8.57;7.68;;;20.60;99.90;;;21.22;77.07;102414.34;4936274;29;20039;-66
2021/07/18 05:27:49;;;;;;;10.65;7.05;;;20.70;99.90;;;21.27;76.93;102407.91;4936368;29;20047;-65
2021/07/18 05:30:17;;;;;;;9.48;8.07;;;20.80;99.90;;;21.36;77.03;102410.41;4936086;29;20118;-65
2021/07/18 05:32:48;;;;;;;11.80;8.55;;;20.90;99.90;;;21.46;76.87;102408.38;4936153;29;20098;-65
2021/07/18 05:35:17;;;;;;;11.07;8.07;;;21.00;99.90;;;21.36;78.22;102399.63;4936044;29;20631;-65
2021/07/18 05:37:47;;;;;;;12.20;8.48;;;21.00;99.90;;;21.61;77.79;102407.09;4935907;29;20075;-65
2021/07/18 05:40:16;;;;;;;13.30;8.17;;;21.10;99.90;;;21.77;77.33;102413.88;4936204;29;20501;-65
2021/07/18 05:42:45;;;;;;;9.95;8.38;;;21.20;99.90;;;21.81;77.27;102415.59;4935734;29;20299;-65
2021/07/18 05:45:15;;;;;;;11.85;7.90;;;21.30;99.90;;;21.59;78.30;102412.53;4935993;29;20044;-65
2021/07/18 05:47:43;;;;;;;12.50;8.38;;;21.20;99.90;;;21.68;77.79;102412.28;4936056;29;20047;-65
2021/07/18 05:50:13;;;;;;;11.50;7.85;;;21.30;99.90;;;21.42;77.73;102368.97;4918962;29;20051;-65
2021/07/18 05:52:42;;;;;;;9.18;7.90;;;21.30;99.90;;;21.04;78.13;102307.13;4935721;29;20056;-65
2021/07/18 05:55:13;;;;;;;12.90;8.30;;;21.20;99.90;;;21.66;78.39;102415.97;4919070;29;20048;-65
2021/07/18 05:57:42;;;;;;;11.88;8.23;;;21.20;99.90;;;21.72;78.65;102407.72;4918985;29;20060;-65
2021/07/18 06:00:14;;;;;;;10.02;7.82;;;21.30;99.90;;;21.87;78.17;102420.81;4935751;29;20048;-65
2021/07/18 06:02:43;;;;;;;7.72;6.70;;;21.40;99.90;;;21.92;78.12;102413.50;4935948;29;20075;-65
2021/07/18 06:05:12;;;;;;;11.98;7.90;;;21.50;99.90;;;21.93;77.95;102409.88;4935980;29;20047;-65
2021/07/18 06:07:40;;;;;;;9.60;7.10;;;21.50;99.90;;;21.92;77.61;102409.00;4935708;29;20512;-65
2021/07/18 06:10:12;;;;;;;8.05;7.00;;;21.50;99.90;;;21.94;77.29;102417.91;4918262;29;20067;-66
2021/07/18 06:12:41;;;;;;;8.23;6.53;;;21.50;99.90;;;22.06;77.58;102420.28;4935917;29;20055;-65
2021/07/18 06:15:10;;;;;;;8.02;6.78;;;21.60;99.90;;;22.20;77.34;102414.53;4918774;29;20051;-65
2021/07/18 06:17:39;;;;;;;6.78;6.07;;;21.80;99.90;;;22.30;76.39;102419.59;4918745;29;20052;-65
2021/07/18 06:20:13;;;;;;;9.55;5.88;;;21.90;99.90;;;22.33;75.82;102419.53;4935704;29;20054;-66
2021/07/18 06:22:42;;;;;;;8.57;5.90;;;22.00;99.90;;;22.37;75.33;102420.31;4935809;29;20122;-65
2021/07/18 06:25:15;;;;;;;6.97;5.03;;;22.00;99.90;;;22.36;75.18;102424.81;4935788;29;20044;-65
2021/07/18 06:27:46;;;;;;;7.63;4.85;;;21.90;99.90;;;22.37;74.97;102428.41;4935753;29;20051;-65
2021/07/18 06:30:16;;;;;;;;;;;22.00;99.90;;;22.41;74.81;102422.00;4919058;29;20124;-65
2021/07/18 06:32:45;;;;;;;6.55;5.20;;;22.00;99.90;;;22.54;74.85;102414.44;4935886;29;19931;-65
2021/07/18 06:35:13;;;;;;;6.25;5.07;;;22.20;99.90;;;22.65;74.07;102410.53;4918690;29;20058;-66
2021/07/18 06:37:42;;;;;;;7.47;4.95;;;22.30;99.90;;;22.62;74.06;102401.66;4935814;29;20103;-65
2021/07/18 06:40:12;;;;;;;5.88;4.85;;;22.40;99.90;;;22.85;73.79;102427.03;4918995;29;20047;-65
2021/07/18 06:42:42;;;;;;;5.97;5.20;;;22.50;99.90;;;23.04;74.07;102416.53;4936057;29;20056;-65
2021/07/18 06:45:12;;;;;;;7.22;4.95;;;22.70;99.90;;;23.12;73.35;102420.75;4936162;29;20048;-65
2021/07/18 06:47:41;;;;;;;7.97;4.50;;;22.80;99.90;;;23.33;72.81;102418.31;4935473;29;20094;-66
2021/07/18 06:50:11;;;;;;;6.55;4.60;;;23.00;99.90;;;23.48;72.04;102428.66;4935579;29;20048;-65
2021/07/18 06:52:40;;;;;;;7.43;4.60;;;23.10;99.90;;;23.50;70.50;102427.66;4935896;29;20040;-66
2021/07/18 06:55:10;;;;;;;7.85;4.55;;;23.20;99.90;;;23.51;70.39;102407.81;4918724;29;20054;-66
2021/07/18 06:57:38;;;;;;;5.25;4.47;;;23.30;99.90;;;23.83;69.67;102428.31;4918431;29;20570;-65
2021/07/18 07:00:10;;;;;;;6.72;4.20;;;23.50;99.90;;;23.97;69.36;102423.34;4937846;29;20406;-66
2021/07/18 07:02:39;;;;;;;6.05;4.13;;;23.60;99.90;;;24.03;69.04;102436.69;4939240;29;20075;-65
2021/07/18 07:05:08;;;;;;;5.60;4.20;;;23.70;99.90;;;24.14;68.76;102432.66;4939226;29;20102;-65
2021/07/18 07:07:37;;;;;;;6.57;4.70;;;23.80;99.90;;;24.21;66.96;102429.72;4938736;29;20458;-66
2021/07/18 07:10:07;;;;;;;8.05;4.38;;;23.90;99.90;;;24.26;67.23;102427.72;4938594;29;20064;-65
2021/07/18 07:12:36;;;;;;;8.93;4.45;;;23.90;99.90;;;24.26;67.36;102425.03;4921799;29;20056;-65
2021/07/18 07:15:05;;;;;;;6.10;4.70;;;24.00;99.90;;;24.20;67.14;102430.69;4921749;29;20076;-65
2021/07/18 07:17:35;;;;;;;7.65;3.97;;;23.90;99.90;;;24.27;66.83;102427.69;4938432;29;20048;-65
2021/07/18 07:20:05;;;;;;;6.72;4.18;;;24.00;99.90;;;24.18;66.63;102428.00;4921654;29;20052;-65
2021/07/18 07:22:35;;;;;;;5.15;4.10;;;23.90;99.90;;;24.26;67.53;102443.97;4921558;29;20062;-65
2021/07/18 07:25:05;;;;;;;7.90;4.30;;;24.00;99.90;;;24.14;66.26;102439.88;4938556;29;20154;-65
2021/07/18 07:27:34;;;;;;;7.45;4.35;;;23.80;99.90;;;24.28;66.10;102434.88;4938220;29;20047;-65
2021/07/18 07:30:03;;;;;;;10.45;4.40;;;23.90;99.90;;;24.25;67.04;102415.16;4938156;29;20051;-65
2021/07/18 07:32:31;;;;;;;7.85;3.80;;;24.00;99.90;;;24.41;66.97;102435.31;4921166;29;20051;-65
2021/07/18 07:35:01;;;;;;;7.50;4.10;;;24.10;99.90;;;24.56;66.17;102432.94;4937930;29;20490;-65
2021/07/18 07:37:30;;;;;;;4.63;3.58;;;24.30;99.90;;;24.50;64.84;102430.44;4921369;29;20052;-65
2021/07/18 07:39:59;;;;;;;7.80;3.70;;;24.20;99.90;;;24.60;64.58;102436.41;4938182;29;20367;-66
2021/07/18 07:42:27;;;;;;;6.05;3.83;;;24.30;99.90;;;24.75;64.87;102430.44;4920954;29;20446;-65
2021/07/18 07:44:56;;;;;;;4.25;3.75;;;24.40;99.90;;;24.71;64.95;102435.03;4937683;29;20461;-66
2021/07/18 07:47:24;;;;;;;8.15;3.92;;;24.40;99.90;;;24.72;64.03;102430.53;4937938;29;20397;-66
2021/07/18 07:49:53;;;;;;;6.90;3.90;;;24.40;99.90;;;24.76;64.33;102433.06;4937745;29;20040;-65
2021/07/18 07:52:23;;;;;;;6.28;3.83;;;24.40;99.90;;;24.81;63.59;102435.63;4937921;29;20071;-65
2021/07/18 07:54:51;;;;;;;7.70;3.70;;;24.50;99.90;;;24.72;63.50;102441.34;4937798;29;20059;-65
2021/07/18 07:57:21;;;;;;;7.75;3.88;;;24.40;99.90;;;24.56;63.44;102424.81;4920708;29;20047;-65
2021/07/18 07:59:50;;;;;;;6.63;3.45;;;24.30;99.90;;;24.63;63.66;102436.25;4920822;29;20086;-65
2021/07/18 08:02:18;;;;;;;8.57;4.05;;;24.30;99.90;;;24.77;64.25;102433.97;4937790;29;20052;-66
2021/07/18 08:04:47;;;;;;;6.50;3.50;;;24.40;99.90;;;24.84;62.85;102435.47;4937880;29;20047;-66
2021/07/18 08:07:17;;;;;;;8.68;3.58;;;24.40;99.90;;;24.85;62.63;102431.84;4937129;29;20046;-66
2021/07/18 08:09:47;;;;;;;7.30;3.85;;;24.50;99.90;;;25.00;61.73;102431.25;4937220;29;20107;-65
2021/07/18 08:12:15;;;;;;;5.88;3.78;;;24.60;99.90;;;25.08;61.35;102434.53;4937224;29;20556;-66
2021/07/18 08:14:44;;;;;;;6.13;3.55;;;24.70;99.90;;;25.16;61.81;102436.94;4937543;29;20052;-66
2021/07/18 08:17:13;;;;;;;7.30;3.65;;;24.80;99.90;;;25.01;60.95;102417.63;4920401;29;20055;-66
2021/07/18 08:19:42;;;;;;;7.68;3.95;;;24.80;99.90;;;25.05;61.18;102435.53;4938128;29;20051;-66
2021/07/18 08:22:11;;;;;;;6.20;3.65;;;24.80;99.90;;;25.20;61.99;102438.59;4937425;29;20077;-66
2021/07/18 08:24:40;;;;;;;5.95;3.70;;;24.90;99.90;;;25.09;61.69;102436.28;4937484;29;20039;-65
2021/07/18 08:27:10;;;;;;;5.13;3.70;;;24.90;99.90;;;25.14;62.20;102439.72;4937248;29;20044;-65
2021/07/18 08:29:38;;;;;;;5.47;3.72;;;24.80;99.90;;;25.08;62.23;102434.53;4937083;29;20482;-66
2021/07/18 08:32:08;;;;;;;5.60;3.67;;;24.80;99.90;;;25.27;61.25;102438.28;4937211;29;20095;-66
2021/07/18 08:34:36;;;;;;;6.10;3.70;;;24.90;99.90;;;25.22;60.58;102431.28;4937269;29;20054;-65
2021/07/18 08:37:05;;;;;;;4.97;3.38;;;25.00;99.90;;;25.22;61.05;102442.13;4937164;29;20073;-66
2021/07/18 08:39:33;;;;;;;6.32;3.85;;;24.90;99.90;;;25.10;60.91;102410.09;4936874;29;20544;-67
2021/07/18 08:42:03;;;;;;;5.70;3.72;;;24.90;99.90;;;25.51;61.46;102433.72;4936406;29;20055;-66
2021/07/18 08:44:35;;;;;;;7.57;3.30;;;25.10;99.90;;;25.54;60.99;102434.47;4937222;29;20070;-66
2021/07/18 08:47:04;;;;;;;5.47;3.72;;;25.30;99.90;;;25.78;60.89;102438.84;4937105;29;20044;-63
2021/07/18 08:49:32;;;;;;;4.95;3.67;;;25.50;99.90;;;25.77;60.11;102439.81;4937226;29;20395;-63
2021/07/18 08:52:04;;;;;;;5.03;3.10;;;25.50;99.90;;;25.85;59.42;102440.38;4937315;29;20055;-64
2021/07/18 08:54:34;;;;;;;5.68;3.45;;;25.50;99.90;;;25.28;58.95;102323.50;4919772;29;20048;-62
2021/07/18 08:57:04;;;;;;;4.55;3.20;;;25.70;99.90;;;25.92;57.95;102433.72;4936897;29;20098;-63
2021/07/18 08:59:35;;;;;;;5.82;3.60;;;25.60;99.90;;;25.92;58.18;102431.00;4936557;29;20114;-63
2021/07/18 09:02:05;;;;;;;7.90;3.78;;;25.70;99.90;;;25.91;58.89;102429.25;4919573;29;20051;-64
2021/07/18 09:04:35;;;;;;;4.30;3.53;;;25.70;99.90;;;25.99;58.97;102423.50;4936432;29;20077;-62
2021/07/18 09:07:07;;;;;;;5.15;3.47;;;25.70;99.90;;;25.44;58.81;102324.66;4919380;29;20071;-67
2021/07/18 09:09:37;;;;;;;4.22;3.22;;;25.80;99.90;;;26.04;58.12;102429.59;4936493;29;20075;-66
2021/07/18 09:12:09;;;;;;;5.30;3.47;;;25.80;99.90;;;26.06;58.37;102433.16;4936147;29;20493;-65
2021/07/18 09:14:41;;;;;;;6.00;3.65;;;25.70;99.90;;;26.12;57.88;102430.16;4936026;29;20482;-64
2021/07/18 09:17:14;;;;;;;6.38;3.95;;;25.80;99.90;;;26.18;57.97;102426.31;4936213;29;20051;-64
2021/07/18 09:19:47;;;;;;;6.55;3.63;;;25.90;99.90;;;26.34;59.03;102433.72;4936783;29;20127;-64
2021/07/18 09:22:18;;;;;;;5.45;3.50;;;26.00;99.90;;;26.22;59.28;102441.50;4936314;29;20048;-63
2021/07/18 09:24:50;;;;;;;9.38;3.97;;;26.00;99.90;;;26.41;57.84;102428.88;4936309;29;20477;-64
2021/07/18 09:27:22;;;;;;;5.97;3.92;;;26.00;99.90;;;26.46;56.95;102424.13;4936279;29;20044;-63
2021/07/18 09:29:55;;;;;;;4.88;3.55;;;26.20;99.90;;;26.39;57.02;102428.06;4936063;29;20054;-63
2021/07/18 09:32:26;;;;;;;6.50;3.55;;;26.10;99.90;;;26.56;56.98;102423.63;4936279;29;20055;-64
2021/07/18 09:34:57;;;;;;;6.30;3.67;;;26.20;99.90;;;26.55;58.49;102423.69;4936084;29;20505;-63
2021/07/18 09:37:29;;;;;;;5.85;3.45;;;26.20;99.90;;;26.69;57.99;102426.66;4919375;29;20048;-63
2021/07/18 09:40:00;;;;;;;5.20;3.20;;;26.30;99.90;;;26.59;56.74;102428.94;4936350;29;20078;-64
2021/07/18 09:42:36;;;;;;;7.63;3.83;;;26.30;99.90;;;26.73;56.67;102425.59;4936287;29;20047;-63
2021/07/18 09:45:14;;;;;;;6.85;3.75;;;26.30;99.90;;;26.86;55.82;102425.88;4935762;29;20413;-64
2021/07/18 09:47:59;;;;;;;4.78;3.55;;;26.50;99.90;;;26.88;55.37;102418.56;4935907;29;20048;-63
2021/07/18 09:50:34;;;;;;;6.82;3.28;;;26.40;99.90;;;26.61;55.90;102424.31;4935768;29;20379;-65
2021/07/18 09:53:09;;;;;;;6.57;3.30;;;26.30;99.90;;;26.77;56.53;102419.94;4919051;29;20054;-64
2021/07/18 09:55:39;;;;;;;5.63;3.58;;;26.40;99.90;;;26.87;55.56;102416.81;4919292;29;20461;-64
2021/07/18 09:58:07;;;;;;;5.77;3.77;;;26.50;99.90;;;26.94;55.32;102416.44;4936130;29;20055;-63
2021/07/18 10:00:42;;;;;;;6.10;3.13;;;26.50;99.90;;;27.06;54.76;102417.69;4935975;29;20050;-64
2021/07/18 10:03:13;;;;;;;4.75;3.45;;;26.70;99.90;;;26.91;55.21;102424.72;4935447;29;20055;-64
2021/07/18 10:05:42;;;;;;;5.43;3.08;;;26.60;99.90;;;26.86;54.81;102420.47;4936143;29;20058;-66
2021/07/18 10:08:12;;;;;;;4.35;3.03;;;26.60;99.90;;;26.81;54.61;102403.50;4935835;29;20044;-68
2021/07/18 10:10:42;;;;;;;4.95;3.40;;;26.60;99.90;;;26.80;54.62;102383.59;4936044;29;20064;-68
2021/07/18 10:13:10;;;;;;;5.72;3.42;;;26.70;99.90;;;26.92;54.31;102418.34;4935600;29;20465;-67
2021/07/18 10:15:40;;;;;;;8.20;3.45;;;26.60;99.90;;;26.94;54.59;102419.16;4935589;29;20052;-65
2021/07/18 10:18:10;;;;;;;6.65;3.30;;;26.60;99.90;;;27.02;53.86;102419.66;4918961;29;20479;-66
2021/07/18 10:20:39;;;;;;;4.77;3.20;;;26.70;99.90;;;26.86;54.49;102413.19;4935492;29;20379;-67
2021/07/18 10:23:08;;;;;;;5.68;3.03;;;26.60;99.90;;;27.11;56.17;102413.78;4935601;29;20047;-65